createdAt,value
2018-07-17T00:00:40.568Z,84.00
2018-07-17T00:01:40.566Z,85.06
2018-07-17T00:02:40.547Z,85.35
2018-07-17T00:03:40.535Z,85.44
2018-07-17T00:04:40.521Z,85.78
2018-07-17T00:05:40.511Z,86.27
2018-07-17T00:06:40.499Z,86.08
2018-07-17T00:07:40.487Z,86.36
2018-07-17T00:08:40.473Z,86.85
2018-07-17T00:09:40.472Z,86.27
2018-07-17T00:10:40.447Z,86.85
2018-07-17T00:11:40.435Z,86.75
2018-07-17T00:12:40.433Z,86.36
2018-07-17T00:13:40.413Z,86.36
2018-07-17T00:14:40.401Z,86.56
2018-07-17T00:15:40.395Z,86.94
2018-07-17T00:16:40.378Z,86.94
2018-07-17T00:17:40.364Z,86.36
2018-07-17T00:18:40.352Z,85.83
2018-07-17T00:19:40.337Z,85.06
2018-07-17T00:20:40.326Z,84.19
2018-07-17T00:21:40.317Z,84.87
2018-07-17T00:22:40.306Z,83.62
2018-07-17T00:23:40.288Z,84.77
2018-07-17T00:24:40.277Z,84.19
2018-07-17T00:25:40.263Z,85.25
2018-07-17T00:26:40.253Z,83.81
2018-07-17T00:27:40.242Z,85.06
2018-07-17T00:28:40.230Z,84.97
2018-07-17T00:29:40.217Z,84.97
2018-07-17T00:30:40.204Z,84.87
2018-07-17T00:31:40.197Z,84.77
2018-07-17T00:32:40.184Z,85.25
2018-07-17T00:33:40.167Z,84.67
2018-07-17T00:34:40.156Z,84.39
2018-07-17T00:35:40.144Z,83.23
2018-07-17T00:36:40.132Z,83.23
2018-07-17T00:37:40.122Z,83.23
2018-07-17T00:38:40.107Z,84.00
2018-07-17T00:39:40.096Z,83.62
2018-07-17T00:40:40.087Z,82.98
2018-07-17T00:41:40.071Z,83.18
2018-07-17T00:42:40.060Z,82.89
2018-07-17T00:43:40.048Z,82.75
2018-07-17T00:44:40.045Z,82.56
2018-07-17T00:45:40.023Z,82.60
2018-07-17T00:46:40.015Z,82.79
2018-07-17T00:47:39.999Z,82.79
2018-07-17T00:48:39.988Z,82.70
2018-07-17T00:49:39.974Z,82.98
2018-07-17T00:50:39.962Z,83.28
2018-07-17T00:51:39.951Z,84.05
2018-07-17T00:52:39.938Z,84.81
2018-07-17T00:53:39.925Z,83.81
2018-07-17T00:54:39.918Z,83.81
2018-07-17T00:55:39.911Z,83.91
2018-07-17T00:56:39.888Z,83.47
2018-07-17T00:57:39.880Z,83.23
2018-07-17T00:58:39.865Z,82.85
2018-07-17T00:59:39.856Z,82.02
2018-07-17T01:00:39.839Z,82.94
2018-07-17T01:01:39.827Z,82.75
2018-07-17T01:02:39.818Z,82.02
2018-07-17T01:03:39.808Z,81.63
2018-07-17T01:04:39.791Z,81.12
2018-07-17T01:05:39.778Z,80.63
2018-07-17T01:06:39.766Z,80.58
2018-07-17T01:07:39.758Z,81.21
2018-07-17T01:08:39.745Z,81.98
2018-07-17T01:09:39.731Z,80.68
2018-07-17T01:10:39.718Z,81.60
2018-07-17T01:11:39.706Z,80.92
2018-07-17T01:12:39.693Z,80.68
2018-07-17T01:13:39.681Z,80.63
2018-07-17T01:14:39.671Z,80.54
2018-07-17T01:15:39.658Z,82.02
2018-07-17T01:16:39.645Z,81.63
2018-07-17T01:17:39.631Z,81.83
2018-07-17T01:18:39.620Z,80.83
2018-07-17T01:19:39.612Z,80.63
2018-07-17T01:20:39.604Z,80.35
2018-07-17T01:21:39.582Z,80.44
2018-07-17T01:22:39.570Z,80.92
2018-07-17T01:23:39.560Z,81.02
2018-07-17T01:24:39.548Z,80.83
2018-07-17T01:25:39.539Z,81.40
2018-07-17T01:26:39.524Z,82.27
2018-07-17T01:27:39.510Z,82.37
2018-07-17T01:28:39.500Z,80.63
2018-07-17T01:29:39.484Z,81.88
2018-07-17T01:30:39.473Z,81.02
2018-07-17T01:31:39.462Z,81.50
2018-07-17T01:32:39.449Z,82.08
2018-07-17T01:33:39.434Z,81.40
2018-07-17T01:34:39.424Z,81.50
2018-07-17T01:35:39.417Z,81.70
2018-07-17T01:36:39.400Z,81.30
2018-07-17T01:37:39.385Z,80.25
2018-07-17T01:38:39.374Z,81.12
2018-07-17T01:39:39.363Z,80.63
2018-07-17T01:40:39.350Z,81.12
2018-07-17T01:41:39.340Z,80.68
2018-07-17T01:42:39.326Z,80.10
2018-07-17T01:43:39.313Z,80.58
2018-07-17T01:44:39.301Z,80.87
2018-07-17T01:45:39.288Z,80.38
2018-07-17T01:46:39.279Z,80.87
2018-07-17T01:47:39.266Z,79.71
2018-07-17T01:48:39.252Z,80.58
2018-07-17T01:49:39.238Z,80.68
2018-07-17T01:50:39.227Z,80.38
2018-07-17T01:51:39.214Z,80.77
2018-07-17T01:52:39.214Z,80.15
2018-07-17T01:53:39.188Z,79.96
2018-07-17T01:54:39.179Z,79.81
2018-07-17T01:55:39.165Z,79.52
2018-07-17T01:56:39.158Z,79.90
2018-07-17T01:57:39.141Z,79.81
2018-07-17T01:58:39.129Z,80.00
2018-07-17T01:59:39.117Z,80.10
2018-07-17T02:00:39.102Z,80.19
2018-07-17T02:01:39.094Z,80.19
2018-07-17T02:02:39.080Z,80.00
2018-07-17T02:03:39.065Z,80.19
2018-07-17T02:04:39.054Z,80.48
2018-07-17T02:05:39.040Z,81.21
2018-07-17T02:06:39.031Z,81.06
2018-07-17T02:07:39.023Z,81.54
2018-07-17T02:08:39.010Z,80.15
2018-07-17T02:09:38.991Z,79.77
2018-07-17T02:10:38.980Z,81.12
2018-07-17T02:11:38.971Z,82.31
2018-07-17T02:12:38.956Z,82.08
2018-07-17T02:13:38.943Z,81.60
2018-07-17T02:14:38.931Z,81.70
2018-07-17T02:15:38.919Z,81.02
2018-07-17T02:16:38.907Z,81.21
2018-07-17T02:17:38.903Z,81.60
2018-07-17T02:18:38.887Z,81.60
2018-07-17T02:19:38.869Z,81.79
2018-07-17T02:20:38.856Z,81.21
2018-07-17T02:21:38.845Z,82.17
2018-07-17T02:22:38.838Z,80.92
2018-07-17T02:23:38.822Z,80.35
2018-07-17T02:24:38.808Z,80.25
2018-07-17T02:25:38.795Z,80.35
2018-07-17T02:26:38.783Z,80.87
2018-07-17T02:27:38.772Z,79.71
2018-07-17T02:28:38.760Z,79.71
2018-07-17T02:29:38.747Z,80.29
2018-07-17T02:30:38.735Z,79.61
2018-07-17T02:31:38.731Z,79.90
2018-07-17T02:32:38.711Z,80.19
2018-07-17T02:33:38.700Z,80.77
2018-07-17T02:34:38.686Z,80.87
2018-07-17T02:35:38.675Z,80.58
2018-07-17T02:36:38.662Z,80.48
2018-07-17T02:37:38.649Z,80.48
2018-07-17T02:38:38.638Z,80.96
2018-07-17T02:39:38.625Z,80.00
2018-07-17T02:40:38.614Z,80.10
2018-07-17T02:41:38.600Z,80.58
2018-07-17T02:42:38.589Z,80.58
2018-07-17T02:43:38.580Z,79.81
2018-07-17T02:44:38.565Z,79.61
2018-07-17T02:45:38.552Z,79.13
2018-07-17T02:46:38.539Z,79.03
2018-07-17T02:47:38.527Z,79.33
2018-07-17T02:48:38.518Z,79.03
2018-07-17T02:49:38.504Z,79.33
2018-07-17T02:50:38.493Z,79.90
2018-07-17T02:51:38.478Z,80.19
2018-07-17T02:52:38.468Z,80.38
2018-07-17T02:53:38.454Z,79.13
2018-07-17T02:54:38.442Z,78.85
2018-07-17T02:55:38.436Z,78.75
2018-07-17T02:56:38.422Z,78.94
2018-07-17T02:57:38.405Z,78.85
2018-07-17T02:58:38.394Z,78.65
2018-07-17T02:59:38.382Z,79.71
2018-07-17T03:00:38.371Z,79.71
2018-07-17T03:01:38.361Z,79.61
2018-07-17T03:02:38.347Z,79.61
2018-07-17T03:03:38.339Z,79.71
2018-07-17T03:04:38.325Z,79.43
2018-07-17T03:05:38.309Z,80.38
2018-07-17T03:06:38.301Z,78.85
2018-07-17T03:07:38.289Z,79.13
2018-07-17T03:08:38.275Z,78.65
2018-07-17T03:09:38.360Z,79.81
2018-07-17T03:10:38.249Z,78.94
2018-07-17T03:11:38.238Z,79.03
2018-07-17T03:12:38.225Z,78.75
2018-07-17T03:13:38.212Z,79.03
2018-07-17T03:14:38.199Z,78.21
2018-07-17T03:15:38.190Z,78.69
2018-07-17T03:16:38.177Z,78.02
2018-07-17T03:17:38.166Z,77.25
2018-07-17T03:18:38.152Z,78.69
2018-07-17T03:19:38.139Z,78.85
2018-07-17T03:20:38.127Z,79.13
2018-07-17T03:21:38.123Z,78.85
2018-07-17T03:22:38.106Z,78.17
2018-07-17T03:23:38.136Z,77.88
2018-07-17T03:24:38.119Z,78.75
2018-07-17T03:25:38.065Z,78.36
2018-07-17T03:26:38.052Z,79.03
2018-07-17T03:27:38.043Z,78.27
2018-07-17T03:28:38.030Z,78.65
2018-07-17T03:29:38.019Z,78.27
2018-07-17T03:30:38.005Z,78.08
2018-07-17T03:31:37.995Z,77.98
2018-07-17T03:32:37.986Z,77.73
2018-07-17T03:33:37.969Z,78.17
2018-07-17T03:34:37.961Z,77.34
2018-07-17T03:35:37.946Z,77.34
2018-07-17T03:36:37.933Z,77.44
2018-07-17T03:37:37.918Z,77.44
2018-07-17T03:38:37.907Z,77.63
2018-07-17T03:39:37.896Z,77.63
2018-07-17T03:40:37.887Z,77.53
2018-07-17T03:41:37.876Z,77.34
2018-07-17T03:42:37.858Z,76.57
2018-07-17T03:43:37.847Z,77.34
2018-07-17T03:44:37.836Z,78.31
2018-07-17T03:45:37.823Z,77.53
2018-07-17T03:46:37.811Z,77.83
2018-07-17T03:47:37.798Z,78.69
2018-07-17T03:48:37.785Z,78.21
2018-07-17T03:49:37.772Z,78.40
2018-07-17T03:50:37.763Z,78.31
2018-07-17T03:51:37.754Z,78.21
2018-07-17T03:52:37.737Z,78.69
2018-07-17T03:53:37.726Z,79.08
2018-07-17T03:54:37.712Z,78.21
2018-07-17T03:55:37.704Z,78.79
2018-07-17T03:56:37.691Z,78.40
2018-07-17T03:57:37.676Z,78.88
2018-07-17T03:58:37.665Z,78.40
2018-07-17T03:59:37.652Z,78.88
2018-07-17T04:00:37.641Z,79.36
2018-07-17T04:01:37.629Z,78.88
2018-07-17T04:02:37.625Z,79.56
2018-07-17T04:03:37.606Z,78.79
2018-07-17T04:04:37.593Z,79.17
2018-07-17T04:05:37.579Z,78.79
2018-07-17T04:06:37.568Z,79.17
2018-07-17T04:07:37.560Z,79.66
2018-07-17T04:08:37.546Z,79.08
2018-07-17T04:09:37.530Z,79.17
2018-07-17T04:10:37.521Z,79.94
2018-07-17T04:11:37.510Z,79.46
2018-07-17T04:12:37.495Z,78.59
2018-07-17T04:13:37.491Z,78.98
2018-07-17T04:14:37.470Z,79.27
2018-07-17T04:15:37.457Z,79.17
2018-07-17T04:16:37.451Z,79.17
2018-07-17T04:17:37.491Z,79.46
2018-07-17T04:18:37.421Z,79.66
2018-07-17T04:19:37.409Z,80.62
2018-07-17T04:20:37.399Z,80.14
2018-07-17T04:21:37.384Z,80.71
2018-07-17T04:22:37.373Z,80.52
2018-07-17T04:23:37.364Z,79.79
2018-07-17T04:24:37.352Z,78.88
2018-07-17T04:25:37.336Z,78.92
2018-07-17T04:26:37.329Z,79.11
2018-07-17T04:27:37.315Z,78.02
2018-07-17T04:28:37.301Z,77.96
2018-07-17T04:29:37.294Z,79.27
2018-07-17T04:30:37.278Z,79.66
2018-07-17T04:31:37.301Z,78.79
2018-07-17T04:32:37.254Z,79.31
2018-07-17T04:33:37.240Z,78.73
2018-07-17T04:34:37.228Z,78.92
2018-07-17T04:35:37.220Z,79.89
2018-07-17T04:36:37.210Z,79.21
2018-07-17T04:37:37.200Z,79.02
2018-07-17T04:38:37.192Z,78.73
2018-07-17T04:39:37.169Z,79.60
2018-07-17T04:40:37.158Z,79.98
2018-07-17T04:41:37.148Z,78.44
2018-07-17T04:42:37.136Z,77.96
2018-07-17T04:43:37.124Z,77.76
2018-07-17T04:44:37.113Z,78.15
2018-07-17T04:45:37.098Z,77.76
2018-07-17T04:46:37.087Z,78.73
2018-07-17T04:47:37.082Z,77.38
2018-07-17T04:48:37.063Z,78.25
2018-07-17T04:49:37.053Z,77.58
2018-07-17T04:50:37.039Z,77.28
2018-07-17T04:51:37.033Z,76.71
2018-07-17T04:52:37.017Z,77.67
2018-07-17T04:53:37.002Z,77.38
2018-07-17T04:54:36.992Z,77.00
2018-07-17T04:55:36.986Z,77.09
2018-07-17T04:56:36.970Z,77.38
2018-07-17T04:57:36.955Z,77.86
2018-07-17T04:58:36.945Z,79.02
2018-07-17T04:59:36.934Z,77.19
2018-07-17T05:00:36.922Z,77.33
2018-07-17T05:01:37.011Z,77.19
2018-07-17T05:02:36.900Z,77.23
2018-07-17T05:03:36.887Z,76.55
2018-07-17T05:04:36.876Z,76.26
2018-07-17T05:05:36.863Z,76.17
2018-07-17T05:06:36.853Z,76.36
2018-07-17T05:07:36.840Z,76.17
2018-07-17T05:08:36.829Z,76.07
2018-07-17T05:09:36.818Z,76.84
2018-07-17T05:10:36.814Z,76.26
2018-07-17T05:11:36.799Z,76.65
2018-07-17T05:12:36.784Z,75.97
2018-07-17T05:13:36.780Z,76.75
2018-07-17T05:14:36.760Z,75.01
2018-07-17T05:15:36.749Z,74.82
2018-07-17T05:16:36.736Z,75.10
2018-07-17T05:17:36.725Z,75.20
2018-07-17T05:18:36.714Z,75.40
2018-07-17T05:19:36.705Z,75.10
2018-07-17T05:20:36.691Z,75.40
2018-07-17T05:21:36.683Z,75.40
2018-07-17T05:22:36.667Z,75.34
2018-07-17T05:23:36.661Z,76.50
2018-07-17T05:24:36.646Z,75.82
2018-07-17T05:25:36.633Z,75.14
2018-07-17T05:26:36.623Z,73.99
2018-07-17T05:27:36.611Z,74.95
2018-07-17T05:28:36.601Z,75.24
2018-07-17T05:29:36.591Z,75.05
2018-07-17T05:30:36.577Z,74.66
2018-07-17T05:31:36.569Z,75.05
2018-07-17T05:32:36.554Z,74.08
2018-07-17T05:33:36.549Z,74.18
2018-07-17T05:34:36.532Z,73.89
2018-07-17T05:35:36.565Z,74.27
2018-07-17T05:36:36.511Z,74.47
2018-07-17T05:37:36.504Z,73.99
2018-07-17T05:38:36.487Z,74.08
2018-07-17T05:39:36.477Z,74.18
2018-07-17T05:40:36.467Z,74.37
2018-07-17T05:41:36.455Z,74.18
2018-07-17T05:42:36.442Z,74.37
2018-07-17T05:43:36.436Z,73.69
2018-07-17T05:44:36.423Z,73.89
2018-07-17T05:45:36.413Z,73.89
2018-07-17T05:46:36.565Z,73.99
2018-07-17T05:47:36.388Z,73.60
2018-07-17T05:48:36.379Z,73.79
2018-07-17T05:49:36.369Z,74.08
2018-07-17T05:50:36.358Z,74.08
2018-07-17T05:51:36.350Z,74.95
2018-07-17T05:52:36.335Z,74.76
2018-07-17T05:53:36.324Z,73.79
2018-07-17T05:54:36.312Z,74.18
2018-07-17T05:55:36.303Z,74.21
2018-07-17T05:56:36.291Z,73.99
2018-07-17T05:57:36.279Z,73.15
2018-07-17T05:58:36.269Z,73.83
2018-07-17T05:59:36.258Z,74.12
2018-07-17T06:00:36.247Z,73.73
2018-07-17T06:01:36.236Z,72.77
2018-07-17T06:02:36.232Z,73.35
2018-07-17T06:03:36.214Z,72.96
2018-07-17T06:04:36.205Z,73.77
2018-07-17T06:05:36.194Z,73.86
2018-07-17T06:06:36.184Z,73.28
2018-07-17T06:07:36.173Z,72.32
2018-07-17T06:08:36.165Z,72.42
2018-07-17T06:09:36.148Z,72.71
2018-07-17T06:10:36.139Z,71.74
2018-07-17T06:11:36.129Z,72.71
2018-07-17T06:12:36.119Z,72.42
2018-07-17T06:13:36.111Z,71.36
2018-07-17T06:14:36.102Z,71.64
2018-07-17T06:15:36.087Z,72.13
2018-07-17T06:16:36.088Z,72.03
2018-07-17T06:17:36.074Z,72.32
2018-07-17T06:18:36.056Z,72.22
2018-07-17T06:19:36.050Z,71.55
2018-07-17T06:20:36.036Z,72.42
2018-07-17T06:21:36.024Z,73.86
2018-07-17T06:22:36.014Z,72.94
2018-07-17T06:23:36.005Z,72.94
2018-07-17T06:24:35.994Z,73.22
2018-07-17T06:25:35.990Z,72.06
2018-07-17T06:26:35.974Z,71.97
2018-07-17T06:27:35.968Z,71.39
2018-07-17T06:28:35.955Z,72.45
2018-07-17T06:29:35.946Z,71.78
2018-07-17T06:30:35.932Z,71.97
2018-07-17T06:31:35.923Z,72.06
2018-07-17T06:32:35.916Z,72.94
2018-07-17T06:33:35.907Z,72.00
2018-07-17T06:34:35.892Z,72.68
2018-07-17T06:35:35.881Z,72.49
2018-07-17T06:36:35.871Z,72.88
2018-07-17T06:37:35.868Z,72.20
2018-07-17T06:38:35.852Z,70.75
2018-07-17T06:39:35.844Z,72.00
2018-07-17T06:40:35.832Z,71.81
2018-07-17T06:41:35.820Z,72.00
2018-07-17T06:42:35.810Z,71.23
2018-07-17T06:43:35.800Z,72.10
2018-07-17T06:44:35.809Z,72.10
2018-07-17T06:45:35.782Z,71.56
2018-07-17T06:46:35.773Z,71.17
2018-07-17T06:47:35.761Z,70.20
2018-07-17T06:48:35.752Z,70.98
2018-07-17T06:49:35.744Z,69.82
2018-07-17T06:50:35.865Z,70.01
2018-07-17T06:51:35.722Z,71.36
2018-07-17T06:52:35.713Z,71.17
2018-07-17T06:53:35.702Z,70.20
2018-07-17T06:54:35.693Z,71.08
2018-07-17T06:55:35.685Z,70.78
2018-07-17T06:56:35.677Z,70.20
2018-07-17T06:57:35.665Z,70.04
2018-07-17T06:58:35.655Z,69.62
2018-07-17T06:59:35.644Z,70.14
2018-07-17T07:00:35.635Z,69.66
2018-07-17T07:01:35.623Z,69.66
2018-07-17T07:02:35.616Z,71.30
2018-07-17T07:03:35.604Z,71.40
2018-07-17T07:04:35.597Z,71.30
2018-07-17T07:05:35.583Z,69.59
2018-07-17T07:06:35.575Z,69.31
2018-07-17T07:07:35.565Z,69.01
2018-07-17T07:08:35.554Z,69.50
2018-07-17T07:09:35.546Z,68.91
2018-07-17T07:10:35.537Z,68.63
2018-07-17T07:11:35.538Z,68.15
2018-07-17T07:12:35.519Z,67.85
2018-07-17T07:13:35.506Z,67.79
2018-07-17T07:14:35.497Z,68.95
2018-07-17T07:15:35.488Z,66.92
2018-07-17T07:16:35.478Z,66.43
2018-07-17T07:17:35.473Z,66.53
2018-07-17T07:18:35.462Z,67.21
2018-07-17T07:19:35.460Z,66.34
2018-07-17T07:20:35.443Z,65.66
2018-07-17T07:21:35.430Z,65.37
2018-07-17T07:22:35.426Z,65.56
2018-07-17T07:23:35.413Z,65.66
2018-07-17T07:24:35.408Z,66.43
2018-07-17T07:25:35.395Z,64.89
2018-07-17T07:26:35.391Z,65.30
2018-07-17T07:27:35.377Z,65.89
2018-07-17T07:28:35.373Z,65.50
2018-07-17T07:29:35.362Z,65.79
2018-07-17T07:30:35.349Z,66.30
2018-07-17T07:31:35.343Z,65.24
2018-07-17T07:32:35.333Z,65.63
2018-07-17T07:33:35.324Z,66.40
2018-07-17T07:34:35.316Z,63.30
2018-07-17T07:35:35.307Z,63.53
2018-07-17T07:36:35.298Z,62.16
2018-07-17T07:37:35.288Z,61.98
2018-07-17T07:38:35.284Z,62.26
2018-07-17T07:39:35.372Z,62.85
2018-07-17T07:40:35.268Z,61.00
2018-07-17T07:41:35.254Z,60.32
2018-07-17T07:42:35.246Z,61.04
2018-07-17T07:43:35.238Z,61.04
2018-07-17T07:44:35.233Z,60.55
2018-07-17T07:45:35.222Z,59.58
2018-07-17T07:46:35.213Z,57.44
2018-07-17T07:47:35.206Z,59.03
2018-07-17T07:48:35.196Z,57.34
2018-07-17T07:49:35.188Z,58.05
2018-07-17T07:50:35.180Z,58.44
2018-07-17T07:51:35.174Z,56.21
2018-07-17T07:52:35.163Z,56.79
2018-07-17T07:53:35.158Z,56.11
2018-07-17T07:54:35.147Z,56.50
2018-07-17T07:55:35.223Z,56.43
2018-07-17T07:56:35.139Z,57.33
2018-07-17T07:57:35.126Z,53.64
2018-07-17T07:58:35.124Z,55.32
2018-07-17T07:59:35.108Z,53.18
2018-07-17T08:00:35.103Z,52.72
2018-07-17T08:01:35.099Z,53.30
2018-07-17T08:02:35.086Z,52.16
2018-07-17T08:03:35.085Z,53.33
2018-07-17T08:04:35.073Z,53.26
2018-07-17T08:05:35.065Z,52.02
2018-07-17T08:06:35.059Z,52.24
2018-07-17T08:07:35.051Z,50.80
2018-07-17T08:08:35.043Z,51.02
2018-07-17T08:09:35.034Z,49.00
2018-07-17T08:10:35.027Z,47.27
2018-07-17T08:11:35.084Z,47.56
2018-07-17T08:12:35.016Z,47.19
2018-07-17T08:13:35.009Z,44.84
2018-07-17T08:14:35.006Z,43.57
2018-07-17T08:15:34.999Z,43.69
2018-07-17T08:16:34.991Z,43.52
2018-07-17T08:17:35.043Z,42.76
2018-07-17T08:18:34.982Z,41.50
2018-07-17T08:19:34.977Z,40.94
2018-07-17T08:20:34.967Z,40.84
2018-07-17T08:21:34.971Z,40.66
2018-07-17T08:22:34.956Z,40.78
2018-07-17T08:23:34.949Z,40.88
2018-07-17T08:24:34.946Z,38.51
2018-07-17T08:25:34.949Z,40.74
2018-07-17T08:26:34.937Z,39.94
2018-07-17T08:27:34.931Z,40.41
2018-07-17T08:28:34.927Z,40.31
2018-07-17T08:29:34.937Z,40.58
2018-07-17T08:30:34.917Z,41.66
2018-07-17T08:31:34.913Z,40.19
2018-07-17T08:32:34.912Z,40.88
2018-07-17T08:33:34.911Z,42.35
2018-07-17T08:34:34.898Z,39.82
2018-07-17T08:35:34.895Z,38.37
2018-07-17T08:36:34.891Z,39.78
2018-07-17T08:37:34.886Z,37.96
2018-07-17T08:38:34.879Z,36.40
2018-07-17T08:39:34.882Z,35.72
2018-07-17T08:40:34.878Z,34.97
2018-07-17T08:41:34.871Z,35.18
2018-07-17T08:42:34.866Z,34.03
2018-07-17T08:43:34.906Z,33.48
2018-07-17T08:44:34.860Z,32.51
2018-07-17T08:45:34.856Z,30.93
2018-07-17T08:46:34.851Z,33.53
2018-07-17T08:47:34.854Z,30.69
2018-07-17T08:48:34.852Z,32.09
2018-07-17T08:49:34.847Z,29.64
2018-07-17T08:50:34.841Z,28.76
2018-07-17T08:51:34.841Z,28.20
2018-07-17T08:52:34.839Z,28.39
2018-07-17T08:53:34.831Z,27.89
2018-07-17T08:54:34.888Z,27.00
2018-07-17T08:55:34.834Z,26.87
2018-07-17T08:56:34.827Z,26.96
2018-07-17T08:57:34.824Z,29.03
2018-07-17T08:58:34.820Z,28.13
2018-07-17T08:59:34.819Z,27.13
2018-07-17T09:00:35.000Z,29.38
2018-07-17T09:01:34.820Z,29.76
2018-07-17T09:02:34.812Z,30.17
2018-07-17T09:03:34.812Z,30.09
2018-07-17T09:04:34.809Z,27.81
2018-07-17T09:05:34.808Z,28.59
2018-07-17T09:06:34.805Z,28.31
2018-07-17T09:07:34.805Z,28.51
2018-07-17T09:08:34.803Z,28.21
2018-07-17T09:09:34.802Z,28.51
2018-07-17T09:10:34.799Z,29.43
2018-07-17T09:11:34.799Z,27.66
2018-07-17T09:12:34.796Z,26.89
2018-07-17T09:13:34.795Z,27.18
2018-07-17T09:14:34.799Z,27.01
2018-07-17T09:15:34.794Z,27.23
2018-07-17T09:16:34.791Z,24.29
2018-07-17T09:17:34.790Z,24.60
2018-07-17T09:18:34.793Z,24.32
2018-07-17T09:19:34.787Z,24.05
2018-07-17T09:20:34.789Z,22.38
2018-07-17T09:21:34.875Z,21.78
2018-07-17T09:22:34.787Z,23.66
2018-07-17T09:23:34.783Z,24.37
2018-07-17T09:24:34.789Z,25.13
2018-07-17T09:25:34.784Z,26.18
2018-07-17T09:26:34.782Z,25.25
2018-07-17T09:27:34.781Z,25.92
2018-07-17T09:28:34.780Z,27.38
2018-07-17T09:29:34.788Z,29.14
2018-07-17T09:30:34.779Z,32.18
2018-07-17T09:31:34.777Z,31.27
2018-07-17T09:32:34.777Z,29.86
2018-07-17T09:33:34.780Z,31.42
2018-07-17T09:34:34.779Z,31.21
2018-07-17T09:35:34.774Z,31.67
2018-07-17T09:36:34.770Z,31.95
2018-07-17T09:37:34.771Z,32.02
2018-07-17T09:38:34.777Z,33.97
2018-07-17T09:39:34.767Z,37.19
2018-07-17T09:40:34.766Z,35.13
2018-07-17T09:41:34.772Z,34.54
2018-07-17T09:42:34.761Z,36.78
2018-07-17T09:43:34.761Z,37.46
2018-07-17T09:44:34.756Z,37.98
2018-07-17T09:45:34.756Z,35.72
2018-07-17T09:46:34.752Z,35.80
2018-07-17T09:47:34.756Z,36.27
2018-07-17T09:48:34.750Z,37.54
2018-07-17T09:49:34.746Z,37.13
2018-07-17T09:50:34.744Z,36.25
2018-07-17T09:51:34.743Z,37.33
2018-07-17T09:52:34.740Z,36.45
2018-07-17T09:53:34.738Z,36.45
2018-07-17T09:54:34.734Z,36.33
2018-07-17T09:55:34.730Z,38.68
2018-07-17T09:56:34.740Z,36.53
2018-07-17T09:57:34.727Z,36.32
2018-07-17T09:58:34.722Z,38.28
2018-07-17T09:59:34.719Z,39.94
2018-07-17T10:00:34.717Z,40.84
2018-07-17T10:01:34.714Z,43.09
2018-07-17T10:02:34.709Z,39.76
2018-07-17T10:03:34.709Z,38.68
2018-07-17T10:04:34.704Z,38.98
2018-07-17T10:05:34.707Z,39.56
2018-07-17T10:06:34.698Z,39.47
2018-07-17T10:07:34.693Z,41.84
2018-07-17T10:08:34.690Z,40.08
2018-07-17T10:09:34.741Z,38.31
2018-07-17T10:10:34.687Z,37.33
2018-07-17T10:11:34.682Z,36.94
2018-07-17T10:12:34.677Z,36.53
2018-07-17T10:13:34.676Z,38.18
2018-07-17T10:14:34.687Z,38.57
2018-07-17T10:15:34.670Z,38.96
2018-07-17T10:16:34.665Z,39.25
2018-07-17T10:17:34.663Z,38.57
2018-07-17T10:18:34.660Z,38.57
2018-07-17T10:19:34.659Z,40.72
2018-07-17T10:20:34.655Z,39.64
2018-07-17T10:21:34.647Z,39.45
2018-07-17T10:22:34.646Z,38.65
2018-07-17T10:23:34.642Z,39.23
2018-07-17T10:24:34.634Z,38.75
2018-07-17T10:25:34.632Z,38.26
2018-07-17T10:26:34.664Z,38.55
2018-07-17T10:27:34.622Z,38.45
2018-07-17T10:28:34.623Z,41.09
2018-07-17T10:29:34.615Z,40.01
2018-07-17T10:30:34.610Z,40.70
2018-07-17T10:31:34.622Z,40.53
2018-07-17T10:32:34.605Z,41.11
2018-07-17T10:33:34.599Z,39.74
2018-07-17T10:34:34.595Z,37.59
2018-07-17T10:35:34.593Z,37.69
2018-07-17T10:36:34.588Z,38.65
2018-07-17T10:37:34.584Z,42.36
2018-07-17T10:38:34.599Z,41.21
2018-07-17T10:39:34.575Z,39.25
2018-07-17T10:40:34.574Z,39.35
2018-07-17T10:41:34.568Z,41.82
2018-07-17T10:42:34.568Z,39.47
2018-07-17T10:43:34.559Z,39.76
2018-07-17T10:44:34.555Z,41.25
2018-07-17T10:45:34.550Z,38.12
2018-07-17T10:46:34.553Z,38.39
2018-07-17T10:47:34.605Z,39.47
2018-07-17T10:48:34.540Z,41.13
2018-07-17T10:49:34.535Z,40.86
2018-07-17T10:50:34.529Z,38.70
2018-07-17T10:51:34.528Z,37.61
2018-07-17T10:52:34.522Z,39.56
2018-07-17T10:53:34.517Z,37.31
2018-07-17T10:54:34.515Z,39.76
2018-07-17T10:55:34.513Z,38.59
2018-07-17T10:56:34.513Z,39.27
2018-07-17T10:57:34.502Z,42.11
2018-07-17T10:58:34.498Z,40.06
2018-07-17T10:59:34.492Z,38.90
2018-07-17T11:00:34.489Z,38.80
2018-07-17T11:01:34.492Z,39.78
2018-07-17T11:02:34.481Z,38.51
2018-07-17T11:03:34.476Z,38.60
2018-07-17T11:04:34.477Z,40.95
2018-07-17T11:05:34.466Z,38.02
2018-07-17T11:06:34.463Z,37.33
2018-07-17T11:07:34.462Z,37.04
2018-07-17T11:08:34.504Z,37.63
2018-07-17T11:09:34.450Z,37.90
2018-07-17T11:10:34.503Z,37.02
2018-07-17T11:11:34.440Z,37.29
2018-07-17T11:12:34.446Z,38.57
2018-07-17T11:13:34.434Z,39.35
2018-07-17T11:14:34.434Z,37.98
2018-07-17T11:15:34.425Z,38.08
2018-07-17T11:16:34.424Z,39.74
2018-07-17T11:17:34.414Z,39.84
2018-07-17T11:18:34.410Z,40.72
2018-07-17T11:19:34.411Z,39.06
2018-07-17T11:20:34.402Z,39.66
2018-07-17T11:21:34.398Z,40.94
2018-07-17T11:22:34.394Z,38.59
2018-07-17T11:23:34.391Z,39.86
2018-07-17T11:24:34.391Z,40.95
2018-07-17T11:25:34.381Z,39.69
2018-07-17T11:26:34.383Z,41.64
2018-07-17T11:27:34.375Z,40.98
2018-07-17T11:28:34.380Z,40.09
2018-07-17T11:29:34.366Z,39.22
2018-07-17T11:30:34.359Z,38.13
2018-07-17T11:31:34.356Z,36.57
2018-07-17T11:32:34.353Z,38.72
2018-07-17T11:33:34.348Z,37.45
2018-07-17T11:34:34.348Z,36.45
2018-07-17T11:35:34.345Z,38.51
2018-07-17T11:36:34.336Z,38.41
2018-07-17T11:37:34.333Z,37.13
2018-07-17T11:38:34.333Z,36.84
2018-07-17T11:39:34.324Z,39.88
2018-07-17T11:40:34.319Z,37.92
2018-07-17T11:41:34.315Z,37.23
2018-07-17T11:42:34.311Z,37.12
2018-07-17T11:43:34.308Z,38.60
2018-07-17T11:44:34.306Z,39.29
2018-07-17T11:45:34.303Z,39.39
2018-07-17T11:46:34.295Z,39.29
2018-07-17T11:47:34.294Z,39.59
2018-07-17T11:48:34.289Z,40.19
2018-07-17T11:49:34.281Z,40.39
2018-07-17T11:50:34.276Z,39.31
2018-07-17T11:51:34.270Z,40.70
2018-07-17T11:52:34.268Z,42.66
2018-07-17T11:53:34.265Z,37.96
2018-07-17T11:54:34.262Z,38.15
2018-07-17T11:55:34.261Z,37.76
2018-07-17T11:56:34.252Z,40.21
2018-07-17T11:57:34.252Z,38.56
2018-07-17T11:58:34.244Z,36.68
2018-07-17T11:59:34.290Z,38.25
2018-07-17T12:00:34.236Z,38.15
2018-07-17T12:01:34.232Z,38.06
2018-07-17T12:02:34.229Z,37.07
2018-07-17T12:03:34.225Z,35.29
2018-07-17T12:04:34.221Z,37.74
2018-07-17T12:05:34.231Z,38.53
2018-07-17T12:06:34.212Z,37.27
2018-07-17T12:07:34.208Z,37.45
2018-07-17T12:08:34.204Z,37.25
2018-07-17T12:09:34.203Z,37.66
2018-07-17T12:10:34.196Z,35.80
2018-07-17T12:11:34.194Z,37.27
2018-07-17T12:12:34.225Z,37.68
2018-07-17T12:13:34.195Z,37.38
2018-07-17T12:14:34.196Z,36.60
2018-07-17T12:15:34.232Z,35.52
2018-07-17T12:16:34.179Z,35.03
2018-07-17T12:17:34.175Z,36.01
2018-07-17T12:18:34.180Z,35.13
2018-07-17T12:19:34.174Z,34.74
2018-07-17T12:20:34.268Z,36.30
2018-07-17T12:21:34.162Z,34.06
2018-07-17T12:22:34.163Z,33.46
2018-07-17T12:23:34.157Z,35.46
2018-07-17T12:24:34.156Z,34.49
2018-07-17T12:25:34.151Z,33.61
2018-07-17T12:26:34.154Z,33.20
2018-07-17T12:27:34.153Z,34.38
2018-07-17T12:28:34.158Z,33.49
2018-07-17T12:29:34.142Z,33.29
2018-07-17T12:30:34.140Z,35.06
2018-07-17T12:31:34.139Z,32.90
2018-07-17T12:32:34.137Z,33.29
2018-07-17T12:33:34.134Z,31.92
2018-07-17T12:34:34.132Z,33.89
2018-07-17T12:35:34.128Z,35.06
2018-07-17T12:36:34.127Z,37.15
2018-07-17T12:37:34.123Z,35.77
2018-07-17T12:38:34.123Z,36.07
2018-07-17T12:39:34.122Z,35.28
2018-07-17T12:40:34.122Z,35.28
2018-07-17T12:41:34.116Z,37.05
2018-07-17T12:42:34.110Z,36.95
2018-07-17T12:43:34.117Z,34.78
2018-07-17T12:44:34.112Z,34.38
2018-07-17T12:45:34.104Z,38.11
2018-07-17T12:46:34.112Z,36.54
2018-07-17T12:47:34.101Z,37.82
2018-07-17T12:48:34.097Z,37.82
2018-07-17T12:49:34.108Z,37.42
2018-07-17T12:50:34.090Z,39.07
2018-07-17T12:51:34.089Z,38.68
2018-07-17T12:52:34.088Z,39.47